createdAt,value
2022-12-01T00:01:09.346Z,52.75
2022-12-01T00:03:36.368Z,77.47
2022-12-01T00:06:09.986Z,58.83
2022-12-01T00:08:37.125Z,47.13
2022-12-01T00:11:08.903Z,45.33
2022-12-01T00:13:36.848Z,44.85
2022-12-01T00:16:13.936Z,50.15
2022-12-01T00:18:41.023Z,63.53
2022-12-01T00:21:14.405Z,50.53
2022-12-01T00:23:44.770Z,67.85
2022-12-01T00:26:11.362Z,51.50
2022-12-01T00:28:37.914Z,61.40
2022-12-01T00:31:10.419Z,53.33
2022-12-01T00:33:37.002Z,55.05
2022-12-01T00:36:04.249Z,56.15
2022-12-01T00:38:31.650Z,52.20
2022-12-01T00:40:58.342Z,55.78
2022-12-01T00:43:25.057Z,52.63
2022-12-01T00:45:51.796Z,63.33
2022-12-01T00:48:18.710Z,60.90
2022-12-01T00:50:45.383Z,52.65
2022-12-01T00:53:11.983Z,55.22
2022-12-01T00:55:40.179Z,60.95
2022-12-01T00:58:07.572Z,67.75
2022-12-01T01:00:34.688Z,47.60
2022-12-01T01:03:01.567Z,54.67
2022-12-01T01:05:28.137Z,60.08
2022-12-01T01:07:54.824Z,83.32
2022-12-01T01:10:22.708Z,55.47
2022-12-01T01:12:49.243Z,49.00
2022-12-01T01:15:16.032Z,50.65
2022-12-01T01:17:42.615Z,59.33
2022-12-01T01:20:09.786Z,54.10
2022-12-01T01:22:36.327Z,49.05
2022-12-01T01:25:02.935Z,66.60
2022-12-01T01:27:29.532Z,52.28
2022-12-01T01:29:56.115Z,46.65
2022-12-01T01:32:22.690Z,49.38
2022-12-01T01:34:49.239Z,50.83
2022-12-01T01:37:15.793Z,54.13
2022-12-01T01:39:42.351Z,49.90
2022-12-01T01:42:13.612Z,53.15
2022-12-01T01:44:54.453Z,52.08
2022-12-01T01:47:27.059Z,49.92
2022-12-01T01:49:55.172Z,56.13
2022-12-01T01:52:22.505Z,57.42
2022-12-01T01:54:51.698Z,59.25
2022-12-01T01:57:24.398Z,55.75
2022-12-01T01:59:55.872Z,59.95
2022-12-01T02:02:22.474Z,64.43
2022-12-01T02:04:52.931Z,56.15
2022-12-01T02:07:20.621Z,71.15
2022-12-01T02:09:47.492Z,66.35
2022-12-01T02:12:29.248Z,60.55
2022-12-01T02:15:32.774Z,71.07
2022-12-01T02:18:17.528Z,54.28
2022-12-01T02:21:08.635Z,50.90
2022-12-01T02:23:44.649Z,58.70
2022-12-01T02:26:29.703Z,74.75
2022-12-01T02:29:17.874Z,64.25
2022-12-01T02:31:58.514Z,65.55
2022-12-01T02:34:40.327Z,66.85
2022-12-01T02:37:12.787Z,74.10
2022-12-01T02:39:48.941Z,83.38
2022-12-01T02:42:54.396Z,58.17
2022-12-01T02:45:27.464Z,74.47
2022-12-01T02:47:56.397Z,67.82
2022-12-01T02:50:24.142Z,86.45
2022-12-01T02:52:50.754Z,66.82
2022-12-01T02:55:17.471Z,85.68
2022-12-01T02:57:44.046Z,70.40
2022-12-01T03:00:13.528Z,75.53
2022-12-01T03:02:52.855Z,75.20
2022-12-01T03:05:29.180Z,63.60
2022-12-01T03:07:55.722Z,78.22
2022-12-01T03:10:34.547Z,92.10
2022-12-01T03:13:08.793Z,84.50
2022-12-01T03:16:01.343Z,61.67
2022-12-01T03:18:51.035Z,59.47
2022-12-01T03:21:26.583Z,85.70
2022-12-01T03:23:56.577Z,65.60
2022-12-01T03:26:24.510Z,67.55
2022-12-01T03:29:03.839Z,71.90
2022-12-01T03:31:33.650Z,62.83
2022-12-01T03:34:14.219Z,68.45
2022-12-01T03:36:48.251Z,63.33
2022-12-01T03:39:20.035Z,87.38
2022-12-01T03:42:18.631Z,66.80
2022-12-01T03:44:49.077Z,89.40
2022-12-01T03:47:22.275Z,81.15
2022-12-01T03:49:51.266Z,77.97
2022-12-01T03:52:45.921Z,81.18
2022-12-01T03:55:12.410Z,71.47
2022-12-01T03:57:57.112Z,92.20
2022-12-01T04:00:24.020Z,74.57
2022-12-01T04:02:58.268Z,82.63
2022-12-01T04:05:25.994Z,83.25
2022-12-01T04:07:53.476Z,92.50
2022-12-01T04:10:20.245Z,86.93
2022-12-01T04:12:46.995Z,74.55
2022-12-01T04:15:14.508Z,79.55
2022-12-01T04:17:45.144Z,59.03
2022-12-01T04:20:15.827Z,60.63
2022-12-01T04:22:42.419Z,73.60
2022-12-01T04:25:09.819Z,66.88
2022-12-01T04:27:36.659Z,71.40
2022-12-01T04:30:05.431Z,64.65
2022-12-01T04:32:32.048Z,68.40
2022-12-01T04:34:58.650Z,72.75
2022-12-01T04:37:25.196Z,73.32
2022-12-01T04:39:52.099Z,85.75
2022-12-01T04:42:18.802Z,92.22
2022-12-01T04:44:45.403Z,86.15
2022-12-01T04:47:11.983Z,85.55
2022-12-01T04:49:38.583Z,89.70
2022-12-01T04:52:05.290Z,82.10
2022-12-01T04:54:31.831Z,101.22
2022-12-01T04:56:58.454Z,90.50
2022-12-01T04:59:25.011Z,123.13
2022-12-01T05:01:51.636Z,104.90
2022-12-01T05:04:18.323Z,122.13
2022-12-01T05:06:45.146Z,100.22
2022-12-01T05:09:17.655Z,105.00
2022-12-01T05:11:44.835Z,107.65
2022-12-01T05:14:11.390Z,115.95
2022-12-01T05:16:37.999Z,120.20
2022-12-01T05:19:24.688Z,118.38
2022-12-01T05:21:51.652Z,122.30
2022-12-01T05:24:19.662Z,98.25
2022-12-01T05:26:46.245Z,103.53
2022-12-01T05:29:13.405Z,103.72
2022-12-01T05:31:40.312Z,105.15
2022-12-01T05:34:07.811Z,99.63
2022-12-01T05:36:34.425Z,101.78
2022-12-01T05:39:01.111Z,110.82
2022-12-01T05:41:27.788Z,117.20
2022-12-01T05:43:54.394Z,103.70
2022-12-01T05:46:20.990Z,93.78
2022-12-01T05:48:47.574Z,108.22
2022-12-01T05:51:15.478Z,108.72
2022-12-01T05:53:42.678Z,103.75
2022-12-01T05:56:09.516Z,98.55
2022-12-01T05:58:36.339Z,105.65
2022-12-01T06:01:03.316Z,105.15
2022-12-01T06:03:29.978Z,99.10
2022-12-01T06:05:56.532Z,101.35
2022-12-01T06:08:23.093Z,102.10
2022-12-01T06:10:49.662Z,87.93
2022-12-01T06:13:16.263Z,104.47
2022-12-01T06:15:42.857Z,84.88
2022-12-01T06:18:09.668Z,86.47
2022-12-01T06:20:36.285Z,92.32
2022-12-01T06:23:03.450Z,87.65
2022-12-01T06:25:30.022Z,86.50
2022-12-01T06:27:57.857Z,80.65
2022-12-01T06:30:24.597Z,87.40
2022-12-01T06:32:51.158Z,83.68
2022-12-01T06:35:17.859Z,83.15
2022-12-01T06:37:44.490Z,103.13
2022-12-01T06:40:11.833Z,91.32
2022-12-01T06:42:38.373Z,92.10
2022-12-01T06:45:05.504Z,82.40
2022-12-01T06:47:32.239Z,87.70
2022-12-01T06:49:58.809Z,82.05
2022-12-01T06:52:25.375Z,89.20
2022-12-01T06:54:51.930Z,87.18
2022-12-01T06:57:18.858Z,86.90
2022-12-01T06:59:45.758Z,96.15
2022-12-01T07:02:12.916Z,91.65
2022-12-01T07:04:39.488Z,87.18
2022-12-01T07:07:06.493Z,78.55
2022-12-01T07:09:33.213Z,82.68
2022-12-01T07:11:59.921Z,87.75
2022-12-01T07:14:27.210Z,91.43
2022-12-01T07:16:54.060Z,100.15
2022-12-01T07:19:20.760Z,97.47
2022-12-01T07:21:47.371Z,79.32
2022-12-01T07:24:14.066Z,87.18
2022-12-01T07:26:41.378Z,89.30
2022-12-01T07:29:11.538Z,84.35
2022-12-01T07:31:38.745Z,83.15
2022-12-01T07:34:05.801Z,86.60
2022-12-01T07:36:32.427Z,86.10
2022-12-01T07:38:59.022Z,81.18
2022-12-01T07:41:25.674Z,87.88
2022-12-01T07:43:52.386Z,103.35
2022-12-01T07:46:23.512Z,93.10
2022-12-01T07:48:51.616Z,79.25
2022-12-01T07:51:18.657Z,96.67
2022-12-01T07:53:46.905Z,83.40
2022-12-01T07:56:13.995Z,85.60
2022-12-01T07:58:40.685Z,96.60
2022-12-01T08:01:09.142Z,78.53
2022-12-01T08:06:03.337Z,73.68
2022-12-01T08:08:32.311Z,80.07
2022-12-01T08:11:05.176Z,79.95
2022-12-01T08:13:31.840Z,77.47
2022-12-01T08:15:59.102Z,75.85
2022-12-01T08:18:25.785Z,82.63
2022-12-01T08:20:57.076Z,92.63
2022-12-01T08:23:23.753Z,79.47
2022-12-01T08:25:54.976Z,84.68
2022-12-01T08:28:21.683Z,75.88
2022-12-01T08:30:48.317Z,85.78
2022-12-01T08:33:14.925Z,85.93
2022-12-01T08:35:41.481Z,79.40
2022-12-01T08:38:09.420Z,80.10
2022-12-01T08:40:36.336Z,71.03
2022-12-01T08:43:02.962Z,79.00
2022-12-01T08:45:29.569Z,89.32
2022-12-01T08:47:58.946Z,74.65
2022-12-01T08:50:27.035Z,73.10
2022-12-01T08:52:53.930Z,81.30
2022-12-01T08:55:21.944Z,76.40
2022-12-01T08:57:48.533Z,75.85
2022-12-01T09:00:16.039Z,83.75
2022-12-01T09:02:42.718Z,86.68
2022-12-01T09:05:09.522Z,74.43
2022-12-01T09:07:36.099Z,81.60
2022-12-01T09:10:02.751Z,73.90
2022-12-01T09:12:29.914Z,75.57
2022-12-01T09:14:56.630Z,76.55
2022-12-01T09:17:23.748Z,81.88
2022-12-01T09:19:50.655Z,101.60
2022-12-01T09:22:18.711Z,87.57
2022-12-01T09:24:45.244Z,94.15
2022-12-01T09:27:11.914Z,105.97
2022-12-01T09:29:38.547Z,99.30
2022-12-01T09:32:05.223Z,97.03
2022-12-01T09:34:31.958Z,91.00
2022-12-01T09:36:58.715Z,104.20
2022-12-01T09:39:25.866Z,93.40
2022-12-01T09:42:09.047Z,108.18
2022-12-01T09:44:46.200Z,90.55
2022-12-01T09:47:24.312Z,101.68
2022-12-01T09:49:54.535Z,120.50
2022-12-01T09:52:22.334Z,107.75
2022-12-01T09:54:49.457Z,112.07
2022-12-01T09:57:36.589Z,104.53
2022-12-01T10:00:11.631Z,132.18
2022-12-01T10:02:46.704Z,122.88
2022-12-01T10:05:22.196Z,124.88
2022-12-01T10:07:55.288Z,137.02
2022-12-01T10:10:28.846Z,123.18
2022-12-01T10:12:55.434Z,110.03
2022-12-01T10:15:49.332Z,108.88
2022-12-01T10:18:34.232Z,108.70
2022-12-01T10:21:28.920Z,121.32
2022-12-01T10:24:02.617Z,117.65
2022-12-01T10:26:47.549Z,110.88
2022-12-01T10:29:22.607Z,128.80
2022-12-01T10:31:54.259Z,139.77
2022-12-01T10:34:41.657Z,121.93
2022-12-01T10:37:15.520Z,136.00
2022-12-01T10:39:44.440Z,110.05
2022-12-01T10:42:25.139Z,102.70
2022-12-01T10:44:54.834Z,113.07
2022-12-01T10:47:24.724Z,110.97
2022-12-01T10:49:52.414Z,95.53
2022-12-01T10:52:34.398Z,96.28
2022-12-01T10:55:02.062Z,91.88
2022-12-01T10:57:30.666Z,89.20
2022-12-01T11:02:26.693Z,88.78
2022-12-01T11:05:02.132Z,78.45
2022-12-01T11:07:36.159Z,71.47
2022-12-01T11:10:24.362Z,81.03
2022-12-01T11:13:03.487Z,82.78
2022-12-01T11:15:34.539Z,81.20
2022-12-01T11:18:07.931Z,76.00
2022-12-01T11:20:36.218Z,111.78
2022-12-01T11:23:24.639Z,78.25
2022-12-01T11:28:30.634Z,77.68
2022-12-01T11:31:03.910Z,75.35
2022-12-01T11:33:33.443Z,78.18
2022-12-01T11:36:00.022Z,72.10
2022-12-01T11:38:34.661Z,72.57
2022-12-01T11:41:01.325Z,67.38
2022-12-01T11:43:31.550Z,66.10
2022-12-01T11:46:00.909Z,80.65
2022-12-01T11:48:29.627Z,72.43
2022-12-01T11:51:15.579Z,73.20
2022-12-01T11:53:43.367Z,69.65
2022-12-01T11:56:12.922Z,75.70
2022-12-01T11:58:39.547Z,70.88
2022-12-01T12:01:31.597Z,73.60
2022-12-01T12:04:35.491Z,78.85
2022-12-01T12:07:41.273Z,67.10
2022-12-01T12:10:22.881Z,76.53
2022-12-01T12:13:06.453Z,67.07
2022-12-01T12:15:42.507Z,63.38
2022-12-01T12:18:39.551Z,66.50
2022-12-01T12:21:21.788Z,75.65
2022-12-01T12:23:58.423Z,68.45
2022-12-01T12:26:37.738Z,69.28
2022-12-01T12:29:38.784Z,61.00
2022-12-01T12:32:24.036Z,62.38
2022-12-01T12:34:54.245Z,64.97
2022-12-01T12:37:20.759Z,66.05
2022-12-01T12:40:05.156Z,63.55
2022-12-01T12:42:38.493Z,63.38
2022-12-01T12:45:32.321Z,53.75
2022-12-01T12:48:17.186Z,60.28
2022-12-01T12:50:52.061Z,56.88
2022-12-01T12:53:22.302Z,57.45
2022-12-01T12:55:51.580Z,65.05
2022-12-01T12:58:24.153Z,59.40
2022-12-01T13:01:04.683Z,59.05
2022-12-01T13:03:41.996Z,60.22
2022-12-01T13:06:39.461Z,57.03
2022-12-01T13:09:11.052Z,59.55
2022-12-01T13:11:47.038Z,58.50
2022-12-01T13:14:32.204Z,58.50
2022-12-01T13:17:06.675Z,56.95
2022-12-01T13:19:36.114Z,60.03
2022-12-01T13:22:04.218Z,58.55
2022-12-01T13:24:31.315Z,50.95
2022-12-01T13:27:01.390Z,54.75
2022-12-01T13:29:43.678Z,54.17
2022-12-01T13:32:34.930Z,57.53
2022-12-01T13:35:06.428Z,53.80
2022-12-01T13:37:36.026Z,54.60
2022-12-01T13:40:29.814Z,56.58
2022-12-01T13:43:05.481Z,52.13
2022-12-01T13:45:40.406Z,48.90
2022-12-01T13:48:29.912Z,53.08
2022-12-01T13:50:59.463Z,47.72
2022-12-01T13:53:39.671Z,49.13
2022-12-01T13:56:28.067Z,53.35
2022-12-01T13:58:55.079Z,47.80
2022-12-01T14:01:22.156Z,49.47
2022-12-01T14:04:01.296Z,51.45
2022-12-01T14:06:46.714Z,55.10
2022-12-01T14:09:33.027Z,56.20
2022-12-01T14:12:02.663Z,67.30
2022-12-01T14:14:35.278Z,52.58
2022-12-01T14:17:03.290Z,59.28
2022-12-01T14:19:52.173Z,50.55
2022-12-01T14:22:35.316Z,54.03
2022-12-01T14:25:05.326Z,59.78
2022-12-01T14:27:42.200Z,53.15
2022-12-01T14:30:41.251Z,59.20
2022-12-01T14:33:45.017Z,54.45
2022-12-01T14:36:23.361Z,51.20
2022-12-01T14:38:52.816Z,54.45
2022-12-01T14:41:27.272Z,52.40
2022-12-01T14:44:03.940Z,50.25
2022-12-01T14:46:43.305Z,47.72
2022-12-01T14:49:13.456Z,55.58
2022-12-01T14:51:43.844Z,54.25
2022-12-01T14:54:18.006Z,52.78
2022-12-01T14:56:47.508Z,66.63
2022-12-01T14:59:20.091Z,68.05
2022-12-01T15:01:49.564Z,69.78
2022-12-01T15:04:16.343Z,83.43
2022-12-01T15:06:43.062Z,80.63
2022-12-01T15:09:36.317Z,90.50
2022-12-01T15:12:07.442Z,78.70
2022-12-01T15:14:39.668Z,82.72
2022-12-01T15:17:08.907Z,76.85
2022-12-01T15:19:38.777Z,74.25
2022-12-01T15:22:12.114Z,83.07
2022-12-01T15:24:38.903Z,78.65
2022-12-01T15:27:29.515Z,86.72
2022-12-01T15:29:58.377Z,80.45
2022-12-01T15:32:25.081Z,75.07
2022-12-01T15:34:55.815Z,90.65
2022-12-01T15:37:25.034Z,83.60
2022-12-01T15:40:00.880Z,91.65
2022-12-01T15:42:39.610Z,73.93
2022-12-01T15:45:15.273Z,79.45
2022-12-01T15:47:43.490Z,94.20
2022-12-01T15:50:33.501Z,94.00
2022-12-01T15:53:03.474Z,86.50
2022-12-01T15:55:32.148Z,91.95
2022-12-01T15:57:59.545Z,75.38
2022-12-01T16:00:26.398Z,106.63
2022-12-01T16:02:55.508Z,83.63
2022-12-01T16:05:27.918Z,83.00
2022-12-01T16:10:41.429Z,95.07
2022-12-01T16:13:36.233Z,86.60
2022-12-01T16:16:28.453Z,79.53
2022-12-01T16:19:00.515Z,77.63
2022-12-01T16:21:27.568Z,77.30
2022-12-01T16:24:05.605Z,84.45
2022-12-01T16:26:33.298Z,88.43
2022-12-01T16:28:59.995Z,88.05
2022-12-01T16:31:27.302Z,81.00
2022-12-01T16:34:09.827Z,93.85
2022-12-01T16:36:49.051Z,87.32
2022-12-01T16:39:15.778Z,97.40
2022-12-01T16:41:44.877Z,99.63
2022-12-01T16:44:28.186Z,96.57
2022-12-01T16:46:55.418Z,93.13
2022-12-01T16:49:22.416Z,111.25
2022-12-01T16:51:55.954Z,110.22
2022-12-01T16:54:23.389Z,90.45
2022-12-01T16:56:50.007Z,94.00
2022-12-01T16:59:16.590Z,99.45
2022-12-01T17:01:43.206Z,102.95
2022-12-01T17:04:09.908Z,92.90
2022-12-01T17:06:38.350Z,83.57
2022-12-01T17:11:32.437Z,83.25
2022-12-01T17:13:59.042Z,85.60
2022-12-01T17:16:25.667Z,99.47
2022-12-01T17:18:52.419Z,96.82
2022-12-01T17:21:19.159Z,88.50
2022-12-01T17:23:45.754Z,85.50
2022-12-01T17:26:15.219Z,82.50
2022-12-01T17:28:41.836Z,88.38
2022-12-01T17:31:08.781Z,91.22
2022-12-01T17:33:36.238Z,92.65
2022-12-01T17:36:05.927Z,105.60
2022-12-01T17:38:36.636Z,85.60
2022-12-01T17:41:15.471Z,85.07
2022-12-01T17:43:42.607Z,74.70
2022-12-01T17:46:11.276Z,69.03
2022-12-01T17:48:45.360Z,66.10
2022-12-01T17:51:12.995Z,70.38
2022-12-01T17:53:40.435Z,67.10
2022-12-01T17:56:09.001Z,68.05
2022-12-01T17:58:35.966Z,71.65
2022-12-01T18:01:02.730Z,64.72
2022-12-01T18:03:29.354Z,78.63
2022-12-01T18:06:00.526Z,77.88
2022-12-01T18:08:30.057Z,65.18
2022-12-01T18:11:00.742Z,70.75
2022-12-01T18:13:27.283Z,68.95
2022-12-01T18:15:54.840Z,58.13
2022-12-01T18:18:22.120Z,61.00
2022-12-01T18:20:48.800Z,66.75
2022-12-01T18:23:15.342Z,81.13
2022-12-01T18:25:41.887Z,58.05
2022-12-01T18:28:10.899Z,64.28
2022-12-01T18:30:38.751Z,58.20
2022-12-01T18:33:06.609Z,63.95
2022-12-01T18:35:33.148Z,57.28
2022-12-01T18:37:59.684Z,70.70
2022-12-01T18:40:26.219Z,59.42
2022-12-01T18:42:52.796Z,63.47
2022-12-01T18:45:21.235Z,75.72
2022-12-01T18:47:48.341Z,68.78
2022-12-01T18:50:15.108Z,60.28
2022-12-01T18:52:41.783Z,59.75
2022-12-01T18:55:08.829Z,75.10
2022-12-01T18:57:35.679Z,64.63
2022-12-01T19:00:04.667Z,59.22
2022-12-01T19:02:31.267Z,61.20
2022-12-01T19:04:57.929Z,60.28
2022-12-01T19:07:29.525Z,69.25
2022-12-01T19:09:56.616Z,81.90
2022-12-01T19:12:23.263Z,80.55
2022-12-01T19:14:52.947Z,82.95
2022-12-01T19:17:19.995Z,82.50
2022-12-01T19:19:46.591Z,72.15
2022-12-01T19:22:13.135Z,72.70
2022-12-01T19:24:39.672Z,79.57
2022-12-01T19:27:06.320Z,70.18
2022-12-01T19:29:32.867Z,81.32
2022-12-01T19:31:59.628Z,68.35
2022-12-01T19:34:26.202Z,69.65
2022-12-01T19:36:53.700Z,68.88
2022-12-01T19:39:20.347Z,79.57
2022-12-01T19:41:46.934Z,74.13
2022-12-01T19:44:13.497Z,78.35
2022-12-01T19:46:40.183Z,87.63
2022-12-01T19:49:07.164Z,68.80
2022-12-01T19:51:35.862Z,67.70
2022-12-01T19:54:04.074Z,81.97
2022-12-01T19:56:31.626Z,71.88
2022-12-01T19:58:59.237Z,71.27
2022-12-01T20:01:26.485Z,59.17
2022-12-01T20:03:54.177Z,73.90
2022-12-01T20:06:25.813Z,70.82
2022-12-01T20:08:53.141Z,68.93
2022-12-01T20:11:19.822Z,66.93
2022-12-01T20:13:47.603Z,64.05
2022-12-01T20:16:20.345Z,73.05
2022-12-01T20:18:47.651Z,81.07
2022-12-01T20:21:20.601Z,70.05
2022-12-01T20:23:49.551Z,67.60
2022-12-01T20:26:18.086Z,72.38
2022-12-01T20:31:24.925Z,64.05
2022-12-01T20:33:53.387Z,81.78
2022-12-01T20:38:47.010Z,85.82
2022-12-01T20:41:14.183Z,71.88
2022-12-01T20:43:40.869Z,74.55
2022-12-01T20:46:07.822Z,81.10
2022-12-01T20:48:34.547Z,84.30
2022-12-01T20:51:02.875Z,81.28
2022-12-01T20:53:29.743Z,93.15
2022-12-01T20:55:56.369Z,71.20
2022-12-01T20:58:23.259Z,71.60
2022-12-01T21:00:49.959Z,71.50
2022-12-01T21:03:16.605Z,98.68
2022-12-01T21:05:43.871Z,80.43
2022-12-01T21:08:12.447Z,71.55
2022-12-01T21:10:42.564Z,77.07
2022-12-01T21:13:38.519Z,72.70
2022-12-01T21:16:13.714Z,71.63
2022-12-01T21:18:46.866Z,64.68
2022-12-01T21:21:22.610Z,87.18
2022-12-01T21:23:55.136Z,73.75
2022-12-01T21:26:21.763Z,69.07
2022-12-01T21:28:48.290Z,78.80
2022-12-01T21:31:15.629Z,75.63
2022-12-01T21:33:42.920Z,71.78
2022-12-01T21:36:16.102Z,63.83
2022-12-01T21:38:46.398Z,78.43
2022-12-01T21:41:29.422Z,75.32
2022-12-01T21:44:00.723Z,66.60
2022-12-01T21:46:27.817Z,74.13
2022-12-01T21:48:54.711Z,67.63
2022-12-01T21:51:23.233Z,81.47
2022-12-01T21:56:27.819Z,67.57
2022-12-01T21:58:57.804Z,67.57
2022-12-01T22:01:32.094Z,64.55
2022-12-01T22:04:18.857Z,78.28
2022-12-01T22:06:48.483Z,63.95
2022-12-01T22:09:19.039Z,78.10
2022-12-01T22:11:49.236Z,88.10
2022-12-01T22:14:24.707Z,85.15
2022-12-01T22:17:10.703Z,72.82
2022-12-01T22:19:44.259Z,80.75
2022-12-01T22:22:10.778Z,82.47
2022-12-01T22:24:48.037Z,75.28
2022-12-01T22:27:29.517Z,76.37
2022-12-01T22:29:58.890Z,78.95
2022-12-01T22:32:40.375Z,77.13
2022-12-01T22:35:09.907Z,95.78
2022-12-01T22:37:47.610Z,83.70
2022-12-01T22:40:33.811Z,91.05
2022-12-01T22:43:14.728Z,101.47
2022-12-01T22:45:42.125Z,124.50
2022-12-01T22:48:27.546Z,85.55
2022-12-01T22:50:54.817Z,96.30
2022-12-01T22:53:31.028Z,121.40
2022-12-01T22:56:00.754Z,146.75
2022-12-01T22:58:31.966Z,121.25
2022-12-01T23:01:03.101Z,104.43
2022-12-01T23:03:29.718Z,86.60
2022-12-01T23:05:57.176Z,93.03
2022-12-01T23:08:24.406Z,105.80
2022-12-01T23:10:51.110Z,109.68
2022-12-01T23:13:23.013Z,93.70
2022-12-01T23:15:51.505Z,99.45
2022-12-01T23:18:29.091Z,87.45
2022-12-01T23:20:57.565Z,86.75
2022-12-01T23:25:55.691Z,95.70
2022-12-01T23:28:22.494Z,104.13
2022-12-01T23:30:51.624Z,107.35
2022-12-01T23:33:30.165Z,102.57
2022-12-01T23:36:06.764Z,114.97
2022-12-01T23:38:38.978Z,103.03
2022-12-01T23:41:26.050Z,118.55
2022-12-01T23:43:54.215Z,120.93
2022-12-01T23:46:23.284Z,101.43
2022-12-01T23:48:56.614Z,83.72
2022-12-01T23:51:26.024Z,92.43
2022-12-01T23:53:53.836Z,94.97
2022-12-01T23:56:22.004Z,100.22
2022-12-01T23:58:49.367Z,91.35
